sensor_id;sensor_type;location;lat;lon;timestamp;P1;durP1;ratioP1;P2;durP2;ratioP2
29730;SDS011;16639;51.488;0.152;2023-05-17T00:00:49;21.77;;;10.77;;
29730;SDS011;16639;51.488;0.152;2023-05-17T00:03:17;31.58;;;11.02;;
29730;SDS011;16639;51.488;0.152;2023-05-17T00:05:44;31.38;;;11.82;;
29730;SDS011;16639;51.488;0.152;2023-05-17T00:12:07;17.88;;;10.27;;
29730;SDS011;16639;51.488;0.152;2023-05-17T00:14:35;19.98;;;10.60;;
29730;SDS011;16639;51.488;0.152;2023-05-17T00:17:02;17.08;;;9.73;;
29730;SDS011;16639;51.488;0.152;2023-05-17T00:19:30;21.15;;;11.15;;
29730;SDS011;16639;51.488;0.152;2023-05-17T00:21:57;22.77;;;10.73;;
29730;SDS011;16639;51.488;0.152;2023-05-17T00:24:24;21.13;;;10.15;;
29730;SDS011;16639;51.488;0.152;2023-05-17T00:26:52;24.35;;;11.00;;
29730;SDS011;16639;51.488;0.152;2023-05-17T00:29:20;22.48;;;11.50;;
29730;SDS011;16639;51.488;0.152;2023-05-17T00:31:47;28.08;;;11.95;;
29730;SDS011;16639;51.488;0.152;2023-05-17T00:34:14;23.55;;;11.05;;
29730;SDS011;16639;51.488;0.152;2023-05-17T00:36:42;29.15;;;11.82;;
29730;SDS011;16639;51.488;0.152;2023-05-17T00:39:09;23.55;;;10.55;;
29730;SDS011;16639;51.488;0.152;2023-05-17T00:41:37;27.80;;;10.85;;
29730;SDS011;16639;51.488;0.152;2023-05-17T00:44:04;29.90;;;10.98;;
29730;SDS011;16639;51.488;0.152;2023-05-17T00:46:31;29.38;;;11.98;;
29730;SDS011;16639;51.488;0.152;2023-05-17T00:48:59;32.05;;;10.05;;
29730;SDS011;16639;51.488;0.152;2023-05-17T00:51:27;21.95;;;10.32;;
29730;SDS011;16639;51.488;0.152;2023-05-17T00:53:55;26.73;;;9.90;;
29730;SDS011;16639;51.488;0.152;2023-05-17T00:56:22;24.98;;;10.30;;
29730;SDS011;16639;51.488;0.152;2023-05-17T00:58:51;23.92;;;9.60;;
29730;SDS011;16639;51.488;0.152;2023-05-17T01:01:19;24.77;;;11.15;;
29730;SDS011;16639;51.488;0.152;2023-05-17T01:03:47;17.60;;;9.07;;
29730;SDS011;16639;51.488;0.152;2023-05-17T01:06:15;24.27;;;9.98;;
29730;SDS011;16639;51.488;0.152;2023-05-17T01:08:58;23.92;;;10.82;;
29730;SDS011;16639;51.488;0.152;2023-05-17T01:17:21;31.42;;;10.65;;
29730;SDS011;16639;51.488;0.152;2023-05-17T01:19:59;29.90;;;9.57;;
29730;SDS011;16639;51.488;0.152;2023-05-17T01:23:19;21.17;;;9.07;;
29730;SDS011;16639;51.488;0.152;2023-05-17T01:28:27;21.38;;;9.50;;
29730;SDS011;16639;51.488;0.152;2023-05-17T01:30:57;18.48;;;8.20;;
29730;SDS011;16639;51.488;0.152;2023-05-17T01:33:28;23.92;;;9.57;;
29730;SDS011;16639;51.488;0.152;2023-05-17T01:35:57;28.05;;;9.32;;
29730;SDS011;16639;51.488;0.152;2023-05-17T01:38:24;18.27;;;7.82;;
29730;SDS011;16639;51.488;0.152;2023-05-17T01:40:57;19.95;;;9.05;;
29730;SDS011;16639;51.488;0.152;2023-05-17T01:49:36;21.38;;;8.45;;
29730;SDS011;16639;51.488;0.152;2023-05-17T01:52:07;21.33;;;7.72;;
29730;SDS011;16639;51.488;0.152;2023-05-17T01:54:44;19.05;;;8.30;;
29730;SDS011;16639;51.488;0.152;2023-05-17T01:57:35;16.85;;;7.50;;
29730;SDS011;16639;51.488;0.152;2023-05-17T02:00:06;24.67;;;8.13;;
29730;SDS011;16639;51.488;0.152;2023-05-17T02:02:35;23.50;;;7.68;;
29730;SDS011;16639;51.488;0.152;2023-05-17T02:05:03;15.80;;;7.22;;
29730;SDS011;16639;51.488;0.152;2023-05-17T02:07:30;18.23;;;6.90;;
29730;SDS011;16639;51.488;0.152;2023-05-17T02:09:58;24.63;;;6.60;;
29730;SDS011;16639;51.488;0.152;2023-05-17T02:12:25;18.10;;;8.15;;
29730;SDS011;16639;51.488;0.152;2023-05-17T02:14:53;15.55;;;6.70;;
29730;SDS011;16639;51.488;0.152;2023-05-17T02:17:20;19.45;;;7.82;;
29730;SDS011;16639;51.488;0.152;2023-05-17T02:19:48;12.63;;;7.20;;
29730;SDS011;16639;51.488;0.152;2023-05-17T02:22:16;20.35;;;7.32;;
29730;SDS011;16639;51.488;0.152;2023-05-17T02:24:43;21.80;;;6.88;;
29730;SDS011;16639;51.488;0.152;2023-05-17T02:27:12;18.73;;;7.07;;
29730;SDS011;16639;51.488;0.152;2023-05-17T02:29:39;16.23;;;6.75;;
29730;SDS011;16639;51.488;0.152;2023-05-17T02:32:07;17.20;;;6.60;;
29730;SDS011;16639;51.488;0.152;2023-05-17T02:34:34;21.35;;;7.80;;
29730;SDS011;16639;51.488;0.152;2023-05-17T02:40:59;18.00;;;7.03;;
29730;SDS011;16639;51.488;0.152;2023-05-17T02:43:26;20.40;;;7.07;;
29730;SDS011;16639;51.488;0.152;2023-05-17T02:45:54;19.23;;;6.75;;
29730;SDS011;16639;51.488;0.152;2023-05-17T02:48:21;16.50;;;6.80;;
29730;SDS011;16639;51.488;0.152;2023-05-17T02:50:48;14.43;;;7.43;;
29730;SDS011;16639;51.488;0.152;2023-05-17T02:53:17;19.55;;;8.55;;
29730;SDS011;16639;51.488;0.152;2023-05-17T02:55:44;18.40;;;6.70;;
29730;SDS011;16639;51.488;0.152;2023-05-17T02:58:11;20.05;;;7.18;;
29730;SDS011;16639;51.488;0.152;2023-05-17T03:00:43;15.35;;;6.65;;
29730;SDS011;16639;51.488;0.152;2023-05-17T03:03:11;25.50;;;9.05;;
29730;SDS011;16639;51.488;0.152;2023-05-17T03:05:39;18.30;;;6.63;;
29730;SDS011;16639;51.488;0.152;2023-05-17T03:08:07;21.45;;;7.40;;
29730;SDS011;16639;51.488;0.152;2023-05-17T03:10:34;27.30;;;7.65;;
29730;SDS011;16639;51.488;0.152;2023-05-17T03:13:01;14.25;;;6.75;;
29730;SDS011;16639;51.488;0.152;2023-05-17T03:15:29;23.02;;;6.93;;
29730;SDS011;16639;51.488;0.152;2023-05-17T03:17:57;15.77;;;7.00;;
29730;SDS011;16639;51.488;0.152;2023-05-17T03:20:24;12.82;;;6.72;;
29730;SDS011;16639;51.488;0.152;2023-05-17T03:22:52;18.23;;;7.55;;
29730;SDS011;16639;51.488;0.152;2023-05-17T03:25:19;19.10;;;6.55;;
29730;SDS011;16639;51.488;0.152;2023-05-17T03:27:46;20.85;;;5.90;;
29730;SDS011;16639;51.488;0.152;2023-05-17T03:30:14;14.75;;;6.32;;
29730;SDS011;16639;51.488;0.152;2023-05-17T03:32:41;25.73;;;7.50;;
29730;SDS011;16639;51.488;0.152;2023-05-17T03:35:11;16.35;;;6.93;;
29730;SDS011;16639;51.488;0.152;2023-05-17T03:37:39;21.73;;;7.65;;
29730;SDS011;16639;51.488;0.152;2023-05-17T03:40:06;12.07;;;5.72;;
29730;SDS011;16639;51.488;0.152;2023-05-17T03:42:34;21.40;;;6.88;;
29730;SDS011;16639;51.488;0.152;2023-05-17T03:45:03;15.93;;;6.65;;
29730;SDS011;16639;51.488;0.152;2023-05-17T03:47:31;12.40;;;7.07;;
29730;SDS011;16639;51.488;0.152;2023-05-17T03:49:58;13.40;;;7.95;;
29730;SDS011;16639;51.488;0.152;2023-05-17T03:52:25;18.88;;;7.85;;
29730;SDS011;16639;51.488;0.152;2023-05-17T03:54:53;15.10;;;7.18;;
29730;SDS011;16639;51.488;0.152;2023-05-17T03:57:20;12.95;;;6.47;;
29730;SDS011;16639;51.488;0.152;2023-05-17T03:59:48;20.55;;;7.32;;
29730;SDS011;16639;51.488;0.152;2023-05-17T04:02:15;20.27;;;7.35;;
29730;SDS011;16639;51.488;0.152;2023-05-17T04:04:49;21.27;;;6.95;;
29730;SDS011;16639;51.488;0.152;2023-05-17T04:07:19;17.70;;;7.50;;
29730;SDS011;16639;51.488;0.152;2023-05-17T04:09:46;15.82;;;7.90;;
29730;SDS011;16639;51.488;0.152;2023-05-17T04:12:13;16.08;;;6.22;;
29730;SDS011;16639;51.488;0.152;2023-05-17T04:14:41;16.65;;;7.05;;
29730;SDS011;16639;51.488;0.152;2023-05-17T04:17:08;21.80;;;8.07;;
29730;SDS011;16639;51.488;0.152;2023-05-17T04:19:36;26.83;;;8.18;;
29730;SDS011;16639;51.488;0.152;2023-05-17T04:22:03;27.08;;;8.50;;
29730;SDS011;16639;51.488;0.152;2023-05-17T04:24:31;16.00;;;6.78;;
29730;SDS011;16639;51.488;0.152;2023-05-17T04:26:58;15.52;;;6.85;;
29730;SDS011;16639;51.488;0.152;2023-05-17T04:29:29;18.48;;;6.82;;
29730;SDS011;16639;51.488;0.152;2023-05-17T04:31:56;16.67;;;6.93;;
29730;SDS011;16639;51.488;0.152;2023-05-17T04:34:25;17.73;;;7.25;;
29730;SDS011;16639;51.488;0.152;2023-05-17T04:36:52;29.00;;;8.13;;
29730;SDS011;16639;51.488;0.152;2023-05-17T04:39:19;20.73;;;6.50;;
29730;SDS011;16639;51.488;0.152;2023-05-17T04:41:47;22.55;;;6.78;;
29730;SDS011;16639;51.488;0.152;2023-05-17T04:44:14;26.27;;;6.53;;
29730;SDS011;16639;51.488;0.152;2023-05-17T04:46:42;14.40;;;6.47;;
29730;SDS011;16639;51.488;0.152;2023-05-17T04:49:11;17.20;;;7.55;;
29730;SDS011;16639;51.488;0.152;2023-05-17T04:51:40;14.02;;;6.75;;
29730;SDS011;16639;51.488;0.152;2023-05-17T04:54:07;22.02;;;6.70;;
29730;SDS011;16639;51.488;0.152;2023-05-17T04:56:34;21.65;;;7.18;;
29730;SDS011;16639;51.488;0.152;2023-05-17T04:59:02;18.85;;;6.57;;
29730;SDS011;16639;51.488;0.152;2023-05-17T05:01:32;19.02;;;7.85;;
29730;SDS011;16639;51.488;0.152;2023-05-17T05:04:01;18.23;;;7.03;;
29730;SDS011;16639;51.488;0.152;2023-05-17T05:06:33;20.70;;;7.95;;
29730;SDS011;16639;51.488;0.152;2023-05-17T05:09:00;26.88;;;8.13;;
29730;SDS011;16639;51.488;0.152;2023-05-17T05:11:28;21.65;;;7.78;;
29730;SDS011;16639;51.488;0.152;2023-05-17T05:13:57;17.85;;;7.82;;
29730;SDS011;16639;51.488;0.152;2023-05-17T05:16:25;21.90;;;7.43;;
29730;SDS011;16639;51.488;0.152;2023-05-17T05:18:52;23.42;;;7.47;;
29730;SDS011;16639;51.488;0.152;2023-05-17T05:21:20;15.93;;;7.07;;
29730;SDS011;16639;51.488;0.152;2023-05-17T05:23:47;27.15;;;10.23;;
29730;SDS011;16639;51.488;0.152;2023-05-17T05:26:15;18.70;;;7.50;;
29730;SDS011;16639;51.488;0.152;2023-05-17T05:28:42;15.05;;;7.10;;
29730;SDS011;16639;51.488;0.152;2023-05-17T05:31:09;17.83;;;6.88;;
29730;SDS011;16639;51.488;0.152;2023-05-17T05:33:37;20.95;;;9.73;;
29730;SDS011;16639;51.488;0.152;2023-05-17T05:36:04;21.25;;;8.10;;
29730;SDS011;16639;51.488;0.152;2023-05-17T05:38:32;23.13;;;8.63;;
29730;SDS011;16639;51.488;0.152;2023-05-17T05:41:00;19.42;;;8.15;;
29730;SDS011;16639;51.488;0.152;2023-05-17T05:43:27;27.63;;;8.18;;
29730;SDS011;16639;51.488;0.152;2023-05-17T05:45:54;18.73;;;9.10;;
29730;SDS011;16639;51.488;0.152;2023-05-17T05:48:22;15.93;;;7.90;;
29730;SDS011;16639;51.488;0.152;2023-05-17T05:50:49;21.27;;;8.15;;
29730;SDS011;16639;51.488;0.152;2023-05-17T05:53:17;28.42;;;8.63;;
29730;SDS011;16639;51.488;0.152;2023-05-17T05:55:45;14.40;;;7.60;;
29730;SDS011;16639;51.488;0.152;2023-05-17T05:58:13;16.60;;;7.45;;
29730;SDS011;16639;51.488;0.152;2023-05-17T06:00:40;24.48;;;8.77;;
29730;SDS011;16639;51.488;0.152;2023-05-17T06:03:08;18.42;;;7.75;;
29730;SDS011;16639;51.488;0.152;2023-05-17T06:05:35;24.13;;;8.52;;
29730;SDS011;16639;51.488;0.152;2023-05-17T06:08:04;19.75;;;8.57;;
29730;SDS011;16639;51.488;0.152;2023-05-17T06:10:32;20.08;;;8.02;;
29730;SDS011;16639;51.488;0.152;2023-05-17T06:12:59;17.33;;;8.98;;
29730;SDS011;16639;51.488;0.152;2023-05-17T06:15:27;21.35;;;8.35;;
29730;SDS011;16639;51.488;0.152;2023-05-17T06:17:56;15.07;;;7.82;;
29730;SDS011;16639;51.488;0.152;2023-05-17T06:20:24;15.65;;;7.90;;
29730;SDS011;16639;51.488;0.152;2023-05-17T06:22:51;21.98;;;8.75;;
29730;SDS011;16639;51.488;0.152;2023-05-17T06:25:19;20.65;;;8.77;;
29730;SDS011;16639;51.488;0.152;2023-05-17T06:27:47;16.95;;;8.30;;
29730;SDS011;16639;51.488;0.152;2023-05-17T06:30:15;17.52;;;6.97;;
29730;SDS011;16639;51.488;0.152;2023-05-17T06:32:42;18.75;;;9.40;;
29730;SDS011;16639;51.488;0.152;2023-05-17T06:35:10;30.58;;;9.40;;
29730;SDS011;16639;51.488;0.152;2023-05-17T06:37:37;18.90;;;7.18;;
29730;SDS011;16639;51.488;0.152;2023-05-17T06:40:05;24.00;;;7.65;;
29730;SDS011;16639;51.488;0.152;2023-05-17T06:42:42;26.23;;;8.45;;
29730;SDS011;16639;51.488;0.152;2023-05-17T06:45:10;21.88;;;7.40;;
29730;SDS011;16639;51.488;0.152;2023-05-17T06:47:37;15.38;;;6.93;;
29730;SDS011;16639;51.488;0.152;2023-05-17T06:50:05;14.57;;;7.13;;
29730;SDS011;16639;51.488;0.152;2023-05-17T06:52:34;21.05;;;8.07;;
29730;SDS011;16639;51.488;0.152;2023-05-17T06:55:02;22.17;;;7.82;;
29730;SDS011;16639;51.488;0.152;2023-05-17T06:57:30;21.73;;;8.85;;
29730;SDS011;16639;51.488;0.152;2023-05-17T06:59:58;18.75;;;8.15;;
29730;SDS011;16639;51.488;0.152;2023-05-17T07:02:25;16.83;;;6.95;;
29730;SDS011;16639;51.488;0.152;2023-05-17T07:04:53;19.17;;;9.00;;
29730;SDS011;16639;51.488;0.152;2023-05-17T07:07:20;24.15;;;9.25;;
29730;SDS011;16639;51.488;0.152;2023-05-17T07:09:47;15.40;;;8.23;;
29730;SDS011;16639;51.488;0.152;2023-05-17T07:12:15;21.98;;;9.82;;
29730;SDS011;16639;51.488;0.152;2023-05-17T07:14:45;20.88;;;8.45;;
29730;SDS011;16639;51.488;0.152;2023-05-17T07:17:12;23.58;;;8.95;;
29730;SDS011;16639;51.488;0.152;2023-05-17T07:19:40;21.67;;;8.40;;
29730;SDS011;16639;51.488;0.152;2023-05-17T07:22:10;25.63;;;8.73;;
29730;SDS011;16639;51.488;0.152;2023-05-17T07:24:38;26.38;;;9.32;;
29730;SDS011;16639;51.488;0.152;2023-05-17T07:27:05;17.73;;;7.95;;
29730;SDS011;16639;51.488;0.152;2023-05-17T07:29:33;19.08;;;8.50;;
29730;SDS011;16639;51.488;0.152;2023-05-17T07:32:00;23.48;;;8.30;;
29730;SDS011;16639;51.488;0.152;2023-05-17T07:34:29;17.15;;;8.93;;
29730;SDS011;16639;51.488;0.152;2023-05-17T07:36:56;19.92;;;8.80;;
29730;SDS011;16639;51.488;0.152;2023-05-17T07:39:24;19.88;;;8.43;;
29730;SDS011;16639;51.488;0.152;2023-05-17T07:41:51;20.23;;;8.10;;
29730;SDS011;16639;51.488;0.152;2023-05-17T07:44:21;28.10;;;8.60;;
29730;SDS011;16639;51.488;0.152;2023-05-17T07:46:48;21.70;;;9.68;;
29730;SDS011;16639;51.488;0.152;2023-05-17T07:49:16;23.10;;;9.18;;
29730;SDS011;16639;51.488;0.152;2023-05-17T07:51:44;26.38;;;10.00;;
29730;SDS011;16639;51.488;0.152;2023-05-17T07:54:20;22.63;;;9.55;;
29730;SDS011;16639;51.488;0.152;2023-05-17T07:56:50;21.33;;;9.10;;
29730;SDS011;16639;51.488;0.152;2023-05-17T07:59:19;27.17;;;9.40;;
29730;SDS011;16639;51.488;0.152;2023-05-17T08:01:50;29.40;;;9.38;;
29730;SDS011;16639;51.488;0.152;2023-05-17T08:04:18;24.00;;;10.13;;
29730;SDS011;16639;51.488;0.152;2023-05-17T08:06:46;21.55;;;9.13;;
29730;SDS011;16639;51.488;0.152;2023-05-17T08:09:15;23.50;;;9.20;;
29730;SDS011;16639;51.488;0.152;2023-05-17T08:11:43;23.55;;;10.85;;
29730;SDS011;16639;51.488;0.152;2023-05-17T08:14:14;20.98;;;9.27;;
29730;SDS011;16639;51.488;0.152;2023-05-17T08:16:42;17.58;;;9.18;;
29730;SDS011;16639;51.488;0.152;2023-05-17T08:19:11;27.17;;;9.70;;
29730;SDS011;16639;51.488;0.152;2023-05-17T08:21:40;16.02;;;9.68;;
29730;SDS011;16639;51.488;0.152;2023-05-17T08:24:08;23.85;;;10.75;;
29730;SDS011;16639;51.488;0.152;2023-05-17T08:26:36;24.08;;;9.70;;
29730;SDS011;16639;51.488;0.152;2023-05-17T08:29:04;21.45;;;9.23;;
29730;SDS011;16639;51.488;0.152;2023-05-17T08:31:31;20.42;;;9.23;;
29730;SDS011;16639;51.488;0.152;2023-05-17T08:33:59;22.85;;;9.68;;
29730;SDS011;16639;51.488;0.152;2023-05-17T08:36:27;19.90;;;9.77;;
29730;SDS011;16639;51.488;0.152;2023-05-17T08:38:54;28.55;;;10.80;;
29730;SDS011;16639;51.488;0.152;2023-05-17T08:41:21;21.85;;;8.75;;
29730;SDS011;16639;51.488;0.152;2023-05-17T08:43:49;20.83;;;9.60;;
29730;SDS011;16639;51.488;0.152;2023-05-17T08:46:18;24.55;;;9.65;;
29730;SDS011;16639;51.488;0.152;2023-05-17T08:48:49;21.25;;;8.43;;
29730;SDS011;16639;51.488;0.152;2023-05-17T08:51:18;21.88;;;8.40;;
29730;SDS011;16639;51.488;0.152;2023-05-17T08:53:46;21.85;;;9.38;;
29730;SDS011;16639;51.488;0.152;2023-05-17T08:56:16;18.92;;;8.68;;
29730;SDS011;16639;51.488;0.152;2023-05-17T08:58:46;15.38;;;7.93;;
29730;SDS011;16639;51.488;0.152;2023-05-17T09:01:23;18.20;;;7.95;;
29730;SDS011;16639;51.488;0.152;2023-05-17T09:03:53;21.85;;;9.30;;
29730;SDS011;16639;51.488;0.152;2023-05-17T09:06:21;22.85;;;8.40;;
29730;SDS011;16639;51.488;0.152;2023-05-17T09:08:49;23.42;;;9.60;;
29730;SDS011;16639;51.488;0.152;2023-05-17T09:11:28;22.75;;;9.88;;
29730;SDS011;16639;51.488;0.152;2023-05-17T09:14:00;28.17;;;9.70;;
29730;SDS011;16639;51.488;0.152;2023-05-17T09:16:31;20.33;;;8.57;;
29730;SDS011;16639;51.488;0.152;2023-05-17T09:19:05;18.05;;;9.32;;
29730;SDS011;16639;51.488;0.152;2023-05-17T09:21:35;30.10;;;9.93;;
29730;SDS011;16639;51.488;0.152;2023-05-17T09:24:02;16.77;;;8.43;;
29730;SDS011;16639;51.488;0.152;2023-05-17T09:26:43;13.02;;;6.60;;
29730;SDS011;16639;51.488;0.152;2023-05-17T09:29:15;17.40;;;7.80;;
29730;SDS011;16639;51.488;0.152;2023-05-17T09:31:42;20.15;;;8.48;;
29730;SDS011;16639;51.488;0.152;2023-05-17T09:34:13;18.15;;;8.43;;
29730;SDS011;16639;51.488;0.152;2023-05-17T09:36:45;19.63;;;8.90;;
29730;SDS011;16639;51.488;0.152;2023-05-17T09:39:13;21.02;;;9.60;;
29730;SDS011;16639;51.488;0.152;2023-05-17T09:41:42;19.17;;;9.70;;
29730;SDS011;16639;51.488;0.152;2023-05-17T09:44:13;19.00;;;7.68;;
29730;SDS011;16639;51.488;0.152;2023-05-17T09:46:43;17.23;;;8.10;;
29730;SDS011;16639;51.488;0.152;2023-05-17T09:49:13;15.73;;;9.07;;
29730;SDS011;16639;51.488;0.152;2023-05-17T09:51:43;22.67;;;9.00;;
29730;SDS011;16639;51.488;0.152;2023-05-17T09:54:12;21.58;;;7.65;;
29730;SDS011;16639;51.488;0.152;2023-05-17T09:56:40;13.95;;;7.93;;
29730;SDS011;16639;51.488;0.152;2023-05-17T09:59:13;18.33;;;8.10;;
29730;SDS011;16639;51.488;0.152;2023-05-17T10:01:41;16.20;;;8.57;;
29730;SDS011;16639;51.488;0.152;2023-05-17T10:04:11;17.17;;;8.38;;
29730;SDS011;16639;51.488;0.152;2023-05-17T10:06:40;22.52;;;8.95;;
29730;SDS011;16639;51.488;0.152;2023-05-17T10:09:17;14.43;;;7.22;;
29730;SDS011;16639;51.488;0.152;2023-05-17T10:11:48;18.70;;;8.02;;
29730;SDS011;16639;51.488;0.152;2023-05-17T10:14:30;19.30;;;8.35;;
29730;SDS011;16639;51.488;0.152;2023-05-17T10:17:00;15.18;;;7.97;;
29730;SDS011;16639;51.488;0.152;2023-05-17T10:19:29;14.93;;;6.57;;
29730;SDS011;16639;51.488;0.152;2023-05-17T10:21:57;14.68;;;6.90;;
29730;SDS011;16639;51.488;0.152;2023-05-17T10:27:14;11.82;;;6.65;;
29730;SDS011;16639;51.488;0.152;2023-05-17T10:29:42;22.00;;;7.05;;
29730;SDS011;16639;51.488;0.152;2023-05-17T10:32:15;10.85;;;5.43;;
29730;SDS011;16639;51.488;0.152;2023-05-17T10:34:45;16.27;;;6.13;;
29730;SDS011;16639;51.488;0.152;2023-05-17T10:37:35;13.60;;;6.72;;
29730;SDS011;16639;51.488;0.152;2023-05-17T10:40:04;17.23;;;6.82;;
29730;SDS011;16639;51.488;0.152;2023-05-17T10:42:32;14.85;;;6.30;;
29730;SDS011;16639;51.488;0.152;2023-05-17T10:45:00;13.07;;;7.43;;
29730;SDS011;16639;51.488;0.152;2023-05-17T10:47:32;17.70;;;5.55;;
29730;SDS011;16639;51.488;0.152;2023-05-17T10:50:00;11.10;;;5.90;;
29730;SDS011;16639;51.488;0.152;2023-05-17T10:52:29;14.52;;;7.00;;
29730;SDS011;16639;51.488;0.152;2023-05-17T10:54:56;23.60;;;7.57;;
29730;SDS011;16639;51.488;0.152;2023-05-17T11:00:19;14.05;;;5.40;;
29730;SDS011;16639;51.488;0.152;2023-05-17T11:02:47;14.60;;;6.15;;
29730;SDS011;16639;51.488;0.152;2023-05-17T11:05:23;18.67;;;6.90;;
29730;SDS011;16639;51.488;0.152;2023-05-17T11:08:11;12.35;;;6.03;;
29730;SDS011;16639;51.488;0.152;2023-05-17T11:13:43;9.35;;;5.72;;
29730;SDS011;16639;51.488;0.152;2023-05-17T11:16:15;14.98;;;5.45;;
29730;SDS011;16639;51.488;0.152;2023-05-17T11:18:51;9.43;;;4.57;;
29730;SDS011;16639;51.488;0.152;2023-05-17T11:21:20;9.75;;;5.40;;
29730;SDS011;16639;51.488;0.152;2023-05-17T11:23:54;16.42;;;6.35;;
29730;SDS011;16639;51.488;0.152;2023-05-17T11:26:34;17.80;;;5.75;;
29730;SDS011;16639;51.488;0.152;2023-05-17T11:29:07;10.48;;;4.65;;
29730;SDS011;16639;51.488;0.152;2023-05-17T11:31:42;20.37;;;5.60;;
29730;SDS011;16639;51.488;0.152;2023-05-17T11:34:10;14.63;;;5.20;;
29730;SDS011;16639;51.488;0.152;2023-05-17T11:36:47;15.07;;;5.80;;
29730;SDS011;16639;51.488;0.152;2023-05-17T11:39:20;17.63;;;5.90;;
29730;SDS011;16639;51.488;0.152;2023-05-17T11:41:53;14.90;;;5.88;;
29730;SDS011;16639;51.488;0.152;2023-05-17T11:44:22;16.80;;;5.65;;
29730;SDS011;16639;51.488;0.152;2023-05-17T11:46:51;13.07;;;5.72;;
29730;SDS011;16639;51.488;0.152;2023-05-17T11:49:26;16.85;;;6.18;;
29730;SDS011;16639;51.488;0.152;2023-05-17T11:52:03;7.50;;;5.55;;
29730;SDS011;16639;51.488;0.152;2023-05-17T11:54:32;11.88;;;5.68;;
29730;SDS011;16639;51.488;0.152;2023-05-17T11:57:00;18.65;;;5.90;;
29730;SDS011;16639;51.488;0.152;2023-05-17T11:59:35;18.27;;;6.70;;
29730;SDS011;16639;51.488;0.152;2023-05-17T12:02:06;14.23;;;6.78;;
29730;SDS011;16639;51.488;0.152;2023-05-17T12:04:37;12.43;;;6.05;;
29730;SDS011;16639;51.488;0.152;2023-05-17T12:07:08;16.65;;;8.18;;
29730;SDS011;16639;51.488;0.152;2023-05-17T12:09:37;12.05;;;7.07;;
29730;SDS011;16639;51.488;0.152;2023-05-17T12:12:06;15.10;;;6.50;;
29730;SDS011;16639;51.488;0.152;2023-05-17T12:14:34;8.45;;;5.50;;
29730;SDS011;16639;51.488;0.152;2023-05-17T12:17:02;12.05;;;5.13;;
29730;SDS011;16639;51.488;0.152;2023-05-17T12:19:34;17.45;;;5.85;;
29730;SDS011;16639;51.488;0.152;2023-05-17T12:22:07;9.55;;;4.65;;
29730;SDS011;16639;51.488;0.152;2023-05-17T12:24:39;12.82;;;5.80;;
29730;SDS011;16639;51.488;0.152;2023-05-17T12:27:08;14.55;;;5.57;;
29730;SDS011;16639;51.488;0.152;2023-05-17T12:29:37;11.75;;;4.97;;
29730;SDS011;16639;51.488;0.152;2023-05-17T12:32:05;11.07;;;5.65;;
29730;SDS011;16639;51.488;0.152;2023-05-17T12:34:34;14.30;;;5.47;;
29730;SDS011;16639;51.488;0.152;2023-05-17T12:37:02;12.75;;;5.18;;
29730;SDS011;16639;51.488;0.152;2023-05-17T12:39:30;17.73;;;5.00;;
29730;SDS011;16639;51.488;0.152;2023-05-17T12:41:58;12.27;;;4.78;;
29730;SDS011;16639;51.488;0.152;2023-05-17T12:44:27;9.38;;;4.45;;
29730;SDS011;16639;51.488;0.152;2023-05-17T12:46:54;10.65;;;5.28;;
29730;SDS011;16639;51.488;0.152;2023-05-17T12:49:23;13.93;;;4.45;;
29730;SDS011;16639;51.488;0.152;2023-05-17T12:51:51;12.63;;;5.15;;
29730;SDS011;16639;51.488;0.152;2023-05-17T12:54:25;13.82;;;5.45;;
29730;SDS011;16639;51.488;0.152;2023-05-17T12:57:13;9.27;;;5.40;;
29730;SDS011;16639;51.488;0.152;2023-05-17T12:59:45;12.15;;;6.53;;
29730;SDS011;16639;51.488;0.152;2023-05-17T13:02:14;12.23;;;5.50;;
29730;SDS011;16639;51.488;0.152;2023-05-17T13:04:42;11.85;;;5.72;;
29730;SDS011;16639;51.488;0.152;2023-05-17T13:07:09;11.50;;;5.40;;
29730;SDS011;16639;51.488;0.152;2023-05-17T13:09:46;13.07;;;5.85;;
29730;SDS011;16639;51.488;0.152;2023-05-17T13:12:18;14.10;;;5.57;;
29730;SDS011;16639;51.488;0.152;2023-05-17T13:14:48;11.50;;;5.53;;
29730;SDS011;16639;51.488;0.152;2023-05-17T13:17:24;11.27;;;5.20;;
29730;SDS011;16639;51.488;0.152;2023-05-17T13:19:53;7.65;;;4.75;;
29730;SDS011;16639;51.488;0.152;2023-05-17T13:22:24;10.40;;;4.82;;
29730;SDS011;16639;51.488;0.152;2023-05-17T13:24:51;10.23;;;5.78;;
29730;SDS011;16639;51.488;0.152;2023-05-17T13:27:19;13.68;;;5.78;;
29730;SDS011;16639;51.488;0.152;2023-05-17T13:29:47;11.00;;;5.10;;
29730;SDS011;16639;51.488;0.152;2023-05-17T13:32:14;11.77;;;5.82;;
29730;SDS011;16639;51.488;0.152;2023-05-17T13:34:42;10.55;;;4.78;;
29730;SDS011;16639;51.488;0.152;2023-05-17T13:37:10;10.93;;;5.55;;
29730;SDS011;16639;51.488;0.152;2023-05-17T13:39:39;9.88;;;4.88;;
29730;SDS011;16639;51.488;0.152;2023-05-17T13:42:07;11.27;;;5.63;;
29730;SDS011;16639;51.488;0.152;2023-05-17T13:44:36;9.05;;;5.93;;
29730;SDS011;16639;51.488;0.152;2023-05-17T13:47:04;11.07;;;5.65;;
29730;SDS011;16639;51.488;0.152;2023-05-17T13:49:32;10.55;;;5.22;;
29730;SDS011;16639;51.488;0.152;2023-05-17T13:51:59;9.38;;;5.35;;
29730;SDS011;16639;51.488;0.152;2023-05-17T13:54:27;12.90;;;5.47;;
29730;SDS011;16639;51.488;0.152;2023-05-17T13:56:54;12.18;;;5.22;;
29730;SDS011;16639;51.488;0.152;2023-05-17T13:59:23;14.13;;;5.78;;
29730;SDS011;16639;51.488;0.152;2023-05-17T14:01:51;7.53;;;4.80;;
29730;SDS011;16639;51.488;0.152;2023-05-17T14:04:19;14.30;;;5.70;;
29730;SDS011;16639;51.488;0.152;2023-05-17T14:06:47;10.38;;;5.30;;
29730;SDS011;16639;51.488;0.152;2023-05-17T14:09:18;13.00;;;6.68;;
29730;SDS011;16639;51.488;0.152;2023-05-17T14:11:46;19.05;;;6.68;;
29730;SDS011;16639;51.488;0.152;2023-05-17T14:14:13;14.93;;;6.68;;
29730;SDS011;16639;51.488;0.152;2023-05-17T14:16:41;17.98;;;7.15;;
29730;SDS011;16639;51.488;0.152;2023-05-17T14:19:08;11.60;;;6.55;;
29730;SDS011;16639;51.488;0.152;2023-05-17T14:21:36;17.77;;;6.88;;
29730;SDS011;16639;51.488;0.152;2023-05-17T14:24:03;22.15;;;7.43;;
29730;SDS011;16639;51.488;0.152;2023-05-17T14:26:32;23.92;;;8.95;;
29730;SDS011;16639;51.488;0.152;2023-05-17T14:28:59;18.35;;;7.95;;
29730;SDS011;16639;51.488;0.152;2023-05-17T14:31:27;28.77;;;8.15;;
29730;SDS011;16639;51.488;0.152;2023-05-17T14:33:55;30.25;;;10.02;;
29730;SDS011;16639;51.488;0.152;2023-05-17T14:36:23;27.80;;;9.95;;
29730;SDS011;16639;51.488;0.152;2023-05-17T14:38:51;22.73;;;8.43;;
29730;SDS011;16639;51.488;0.152;2023-05-17T14:41:18;21.25;;;9.43;;
29730;SDS011;16639;51.488;0.152;2023-05-17T14:43:45;23.85;;;8.32;;
29730;SDS011;16639;51.488;0.152;2023-05-17T14:46:13;16.92;;;8.52;;
29730;SDS011;16639;51.488;0.152;2023-05-17T14:48:40;17.80;;;8.20;;
29730;SDS011;16639;51.488;0.152;2023-05-17T14:51:08;24.13;;;9.35;;
29730;SDS011;16639;51.488;0.152;2023-05-17T14:53:35;22.40;;;9.32;;
29730;SDS011;16639;51.488;0.152;2023-05-17T14:56:03;17.65;;;8.43;;
29730;SDS011;16639;51.488;0.152;2023-05-17T14:58:30;28.00;;;9.05;;
29730;SDS011;16639;51.488;0.152;2023-05-17T15:00:58;28.15;;;8.80;;
29730;SDS011;16639;51.488;0.152;2023-05-17T15:03:32;26.15;;;9.32;;
29730;SDS011;16639;51.488;0.152;2023-05-17T15:06:01;22.63;;;10.05;;
29730;SDS011;16639;51.488;0.152;2023-05-17T15:08:34;24.80;;;8.60;;
29730;SDS011;16639;51.488;0.152;2023-05-17T15:11:01;20.58;;;9.65;;
29730;SDS011;16639;51.488;0.152;2023-05-17T15:13:29;27.35;;;9.55;;
29730;SDS011;16639;51.488;0.152;2023-05-17T15:15:57;18.70;;;8.45;;